sensor_id;sensor_type;location;lat;lon;timestamp;P1;durP1;ratioP1;P2;durP2;ratioP2
2602;SDS011;1311;47.966;7.958;2024-01-06T00:01:48;2.03;;;1.60;;
2602;SDS011;1311;47.966;7.958;2024-01-06T00:04:15;2.23;;;1.30;;
2602;SDS011;1311;47.966;7.958;2024-01-06T00:06:41;1.83;;;1.60;;
2602;SDS011;1311;47.966;7.958;2024-01-06T00:09:08;1.40;;;1.17;;
2602;SDS011;1311;47.966;7.958;2024-01-06T00:11:35;3.13;;;1.33;;
2602;SDS011;1311;47.966;7.958;2024-01-06T00:14:02;1.23;;;1.10;;
2602;SDS011;1311;47.966;7.958;2024-01-06T00:16:28;3.27;;;1.50;;
2602;SDS011;1311;47.966;7.958;2024-01-06T00:18:56;1.73;;;1.40;;
2602;SDS011;1311;47.966;7.958;2024-01-06T00:21:24;1.77;;;1.60;;
2602;SDS011;1311;47.966;7.958;2024-01-06T00:23:51;3.50;;;2.00;;
2602;SDS011;1311;47.966;7.958;2024-01-06T00:26:18;2.50;;;1.70;;
2602;SDS011;1311;47.966;7.958;2024-01-06T00:28:44;2.53;;;1.23;;
2602;SDS011;1311;47.966;7.958;2024-01-06T00:31:14;1.73;;;1.40;;
2602;SDS011;1311;47.966;7.958;2024-01-06T00:33:41;2.90;;;1.50;;
2602;SDS011;1311;47.966;7.958;2024-01-06T00:36:09;1.93;;;1.47;;
2602;SDS011;1311;47.966;7.958;2024-01-06T00:38:36;2.90;;;1.50;;
2602;SDS011;1311;47.966;7.958;2024-01-06T00:41:03;1.70;;;1.23;;
2602;SDS011;1311;47.966;7.958;2024-01-06T00:43:29;2.00;;;1.57;;
2602;SDS011;1311;47.966;7.958;2024-01-06T00:45:56;2.70;;;1.20;;
2602;SDS011;1311;47.966;7.958;2024-01-06T00:48:23;3.60;;;1.80;;
2602;SDS011;1311;47.966;7.958;2024-01-06T00:50:50;2.40;;;1.40;;
2602;SDS011;1311;47.966;7.958;2024-01-06T00:53:18;1.90;;;1.60;;
2602;SDS011;1311;47.966;7.958;2024-01-06T00:55:45;3.23;;;1.97;;
2602;SDS011;1311;47.966;7.958;2024-01-06T00:58:11;5.60;;;1.43;;
2602;SDS011;1311;47.966;7.958;2024-01-06T01:00:38;3.43;;;1.50;;
2602;SDS011;1311;47.966;7.958;2024-01-06T01:03:05;5.10;;;1.77;;
2602;SDS011;1311;47.966;7.958;2024-01-06T01:05:32;1.87;;;1.60;;
2602;SDS011;1311;47.966;7.958;2024-01-06T01:07:59;2.23;;;1.60;;
2602;SDS011;1311;47.966;7.958;2024-01-06T01:10:27;3.37;;;1.50;;
2602;SDS011;1311;47.966;7.958;2024-01-06T01:12:53;1.47;;;1.37;;
2602;SDS011;1311;47.966;7.958;2024-01-06T01:15:20;2.13;;;1.47;;
2602;SDS011;1311;47.966;7.958;2024-01-06T01:17:47;2.53;;;1.27;;
2602;SDS011;1311;47.966;7.958;2024-01-06T01:20:14;3.03;;;1.47;;
2602;SDS011;1311;47.966;7.958;2024-01-06T01:22:41;1.63;;;1.47;;
2602;SDS011;1311;47.966;7.958;2024-01-06T01:25:07;1.67;;;1.00;;
2602;SDS011;1311;47.966;7.958;2024-01-06T01:27:36;4.73;;;1.50;;
2602;SDS011;1311;47.966;7.958;2024-01-06T01:30:03;1.63;;;1.20;;
2602;SDS011;1311;47.966;7.958;2024-01-06T01:32:30;2.23;;;1.20;;
2602;SDS011;1311;47.966;7.958;2024-01-06T01:34:57;1.67;;;1.33;;
2602;SDS011;1311;47.966;7.958;2024-01-06T01:37:24;1.50;;;1.40;;
2602;SDS011;1311;47.966;7.958;2024-01-06T01:39:50;1.83;;;1.30;;
2602;SDS011;1311;47.966;7.958;2024-01-06T01:42:17;1.83;;;1.40;;
2602;SDS011;1311;47.966;7.958;2024-01-06T01:44:45;2.93;;;2.10;;
2602;SDS011;1311;47.966;7.958;2024-01-06T01:47:12;3.27;;;1.90;;
2602;SDS011;1311;47.966;7.958;2024-01-06T01:49:43;2.63;;;1.40;;
2602;SDS011;1311;47.966;7.958;2024-01-06T01:52:09;3.40;;;1.50;;
2602;SDS011;1311;47.966;7.958;2024-01-06T01:54:36;2.83;;;1.20;;
2602;SDS011;1311;47.966;7.958;2024-01-06T01:57:03;1.40;;;1.10;;
2602;SDS011;1311;47.966;7.958;2024-01-06T01:59:30;2.00;;;1.80;;
2602;SDS011;1311;47.966;7.958;2024-01-06T02:01:59;2.57;;;1.90;;
2602;SDS011;1311;47.966;7.958;2024-01-06T02:04:27;4.67;;;2.23;;
2602;SDS011;1311;47.966;7.958;2024-01-06T02:06:54;2.90;;;2.43;;
2602;SDS011;1311;47.966;7.958;2024-01-06T02:09:21;3.80;;;2.50;;
2602;SDS011;1311;47.966;7.958;2024-01-06T02:11:52;2.67;;;2.47;;
2602;SDS011;1311;47.966;7.958;2024-01-06T02:14:18;2.83;;;2.40;;
2602;SDS011;1311;47.966;7.958;2024-01-06T02:16:45;3.33;;;2.37;;
2602;SDS011;1311;47.966;7.958;2024-01-06T02:19:13;6.20;;;2.80;;
2602;SDS011;1311;47.966;7.958;2024-01-06T02:21:42;3.90;;;2.57;;
2602;SDS011;1311;47.966;7.958;2024-01-06T02:24:11;3.60;;;2.43;;
2602;SDS011;1311;47.966;7.958;2024-01-06T02:26:38;7.37;;;3.03;;
2602;SDS011;1311;47.966;7.958;2024-01-06T02:29:05;5.50;;;2.80;;
2602;SDS011;1311;47.966;7.958;2024-01-06T02:31:31;2.73;;;2.53;;
2602;SDS011;1311;47.966;7.958;2024-01-06T02:33:58;3.10;;;2.53;;
2602;SDS011;1311;47.966;7.958;2024-01-06T02:36:25;2.90;;;2.60;;
2602;SDS011;1311;47.966;7.958;2024-01-06T02:38:52;2.63;;;2.27;;
2602;SDS011;1311;47.966;7.958;2024-01-06T02:41:20;3.50;;;1.73;;
2602;SDS011;1311;47.966;7.958;2024-01-06T02:43:46;5.60;;;2.40;;
2602;SDS011;1311;47.966;7.958;2024-01-06T02:46:13;3.43;;;2.43;;
2602;SDS011;1311;47.966;7.958;2024-01-06T02:48:40;5.73;;;2.63;;
2602;SDS011;1311;47.966;7.958;2024-01-06T02:51:07;2.77;;;1.90;;
2602;SDS011;1311;47.966;7.958;2024-01-06T02:53:34;3.20;;;2.70;;
2602;SDS011;1311;47.966;7.958;2024-01-06T02:56:00;4.00;;;2.60;;
2602;SDS011;1311;47.966;7.958;2024-01-06T02:58:28;2.60;;;2.37;;
2602;SDS011;1311;47.966;7.958;2024-01-06T03:00:55;3.27;;;2.13;;
2602;SDS011;1311;47.966;7.958;2024-01-06T03:03:22;3.30;;;2.20;;
2602;SDS011;1311;47.966;7.958;2024-01-06T03:05:48;3.90;;;2.37;;
2602;SDS011;1311;47.966;7.958;2024-01-06T03:08:15;4.00;;;2.40;;
2602;SDS011;1311;47.966;7.958;2024-01-06T03:10:42;4.40;;;2.07;;
2602;SDS011;1311;47.966;7.958;2024-01-06T03:13:09;3.50;;;1.80;;
2602;SDS011;1311;47.966;7.958;2024-01-06T03:15:37;3.03;;;2.00;;
2602;SDS011;1311;47.966;7.958;2024-01-06T03:18:04;3.57;;;1.63;;
2602;SDS011;1311;47.966;7.958;2024-01-06T03:20:31;1.60;;;1.50;;
2602;SDS011;1311;47.966;7.958;2024-01-06T03:22:58;2.53;;;1.60;;
2602;SDS011;1311;47.966;7.958;2024-01-06T03:25:24;2.27;;;1.67;;
2602;SDS011;1311;47.966;7.958;2024-01-06T03:27:51;3.07;;;1.60;;
2602;SDS011;1311;47.966;7.958;2024-01-06T03:30:18;1.73;;;1.63;;
2602;SDS011;1311;47.966;7.958;2024-01-06T03:32:46;6.53;;;1.77;;
2602;SDS011;1311;47.966;7.958;2024-01-06T03:35:13;1.53;;;1.40;;
2602;SDS011;1311;47.966;7.958;2024-01-06T03:37:40;2.50;;;1.10;;
2602;SDS011;1311;47.966;7.958;2024-01-06T03:40:07;1.73;;;1.30;;
2602;SDS011;1311;47.966;7.958;2024-01-06T03:42:35;1.30;;;1.20;;
2602;SDS011;1311;47.966;7.958;2024-01-06T03:45:02;2.60;;;1.20;;
2602;SDS011;1311;47.966;7.958;2024-01-06T03:47:29;3.10;;;1.80;;
2602;SDS011;1311;47.966;7.958;2024-01-06T03:49:57;2.27;;;1.30;;
2602;SDS011;1311;47.966;7.958;2024-01-06T03:52:24;3.57;;;1.20;;
2602;SDS011;1311;47.966;7.958;2024-01-06T03:54:51;1.70;;;1.40;;
2602;SDS011;1311;47.966;7.958;2024-01-06T03:57:18;1.60;;;1.30;;
2602;SDS011;1311;47.966;7.958;2024-01-06T03:59:44;1.37;;;1.27;;
2602;SDS011;1311;47.966;7.958;2024-01-06T04:02:11;5.87;;;1.60;;
2602;SDS011;1311;47.966;7.958;2024-01-06T04:04:38;2.40;;;1.30;;
2602;SDS011;1311;47.966;7.958;2024-01-06T04:07:06;1.77;;;1.47;;
2602;SDS011;1311;47.966;7.958;2024-01-06T04:09:33;3.50;;;1.60;;
2602;SDS011;1311;47.966;7.958;2024-01-06T04:12:00;3.47;;;1.37;;
2602;SDS011;1311;47.966;7.958;2024-01-06T04:14:27;2.70;;;1.53;;
2602;SDS011;1311;47.966;7.958;2024-01-06T04:16:54;4.70;;;1.33;;
2602;SDS011;1311;47.966;7.958;2024-01-06T04:19:21;2.20;;;1.43;;
2602;SDS011;1311;47.966;7.958;2024-01-06T04:21:48;3.00;;;1.20;;
2602;SDS011;1311;47.966;7.958;2024-01-06T04:24:16;1.77;;;1.47;;
2602;SDS011;1311;47.966;7.958;2024-01-06T04:26:43;1.70;;;1.60;;
2602;SDS011;1311;47.966;7.958;2024-01-06T04:29:11;2.60;;;1.53;;
2602;SDS011;1311;47.966;7.958;2024-01-06T04:31:38;2.10;;;1.50;;
2602;SDS011;1311;47.966;7.958;2024-01-06T04:34:04;2.03;;;1.30;;
2602;SDS011;1311;47.966;7.958;2024-01-06T04:36:31;7.00;;;1.97;;
2602;SDS011;1311;47.966;7.958;2024-01-06T04:38:58;2.10;;;1.27;;
2602;SDS011;1311;47.966;7.958;2024-01-06T04:41:26;1.87;;;1.77;;
2602;SDS011;1311;47.966;7.958;2024-01-06T04:43:53;3.50;;;1.77;;
2602;SDS011;1311;47.966;7.958;2024-01-06T04:46:19;3.53;;;1.33;;
2602;SDS011;1311;47.966;7.958;2024-01-06T04:48:47;2.13;;;1.00;;
2602;SDS011;1311;47.966;7.958;2024-01-06T04:51:13;3.17;;;1.50;;
2602;SDS011;1311;47.966;7.958;2024-01-06T04:53:40;3.23;;;1.50;;
2602;SDS011;1311;47.966;7.958;2024-01-06T04:56:07;1.60;;;1.50;;
2602;SDS011;1311;47.966;7.958;2024-01-06T04:58:35;1.73;;;1.03;;
2602;SDS011;1311;47.966;7.958;2024-01-06T05:01:02;2.07;;;1.20;;
2602;SDS011;1311;47.966;7.958;2024-01-06T05:03:29;1.67;;;1.10;;
2602;SDS011;1311;47.966;7.958;2024-01-06T05:05:55;1.30;;;1.20;;
2602;SDS011;1311;47.966;7.958;2024-01-06T05:08:22;4.43;;;1.80;;
2602;SDS011;1311;47.966;7.958;2024-01-06T05:10:51;1.47;;;1.10;;
2602;SDS011;1311;47.966;7.958;2024-01-06T05:13:18;2.20;;;1.27;;
2602;SDS011;1311;47.966;7.958;2024-01-06T05:15:47;2.70;;;1.23;;
2602;SDS011;1311;47.966;7.958;2024-01-06T05:18:14;2.20;;;1.37;;
2602;SDS011;1311;47.966;7.958;2024-01-06T05:20:40;1.57;;;1.30;;
2602;SDS011;1311;47.966;7.958;2024-01-06T05:23:07;1.60;;;1.50;;
2602;SDS011;1311;47.966;7.958;2024-01-06T05:25:34;1.20;;;1.07;;
2602;SDS011;1311;47.966;7.958;2024-01-06T05:28:01;3.30;;;1.50;;
2602;SDS011;1311;47.966;7.958;2024-01-06T05:30:27;3.93;;;1.70;;
2602;SDS011;1311;47.966;7.958;2024-01-06T05:32:55;1.83;;;1.70;;
2602;SDS011;1311;47.966;7.958;2024-01-06T05:35:22;1.50;;;1.40;;
2602;SDS011;1311;47.966;7.958;2024-01-06T05:37:49;1.50;;;1.33;;
2602;SDS011;1311;47.966;7.958;2024-01-06T05:40:16;2.00;;;1.57;;
2602;SDS011;1311;47.966;7.958;2024-01-06T05:42:42;3.33;;;1.57;;
2602;SDS011;1311;47.966;7.958;2024-01-06T05:45:10;2.17;;;1.40;;
2602;SDS011;1311;47.966;7.958;2024-01-06T05:47:38;1.73;;;1.53;;
2602;SDS011;1311;47.966;7.958;2024-01-06T05:50:07;1.73;;;1.40;;
2602;SDS011;1311;47.966;7.958;2024-01-06T05:52:35;2.50;;;2.23;;
2602;SDS011;1311;47.966;7.958;2024-01-06T05:55:02;2.90;;;2.13;;
2602;SDS011;1311;47.966;7.958;2024-01-06T05:57:30;3.20;;;2.20;;
2602;SDS011;1311;47.966;7.958;2024-01-06T05:59:56;5.30;;;2.07;;
2602;SDS011;1311;47.966;7.958;2024-01-06T06:02:23;2.00;;;1.80;;
2602;SDS011;1311;47.966;7.958;2024-01-06T06:04:51;3.10;;;2.03;;
2602;SDS011;1311;47.966;7.958;2024-01-06T06:07:19;5.83;;;2.50;;
2602;SDS011;1311;47.966;7.958;2024-01-06T06:09:46;2.33;;;2.03;;
2602;SDS011;1311;47.966;7.958;2024-01-06T06:12:13;2.33;;;2.13;;
2602;SDS011;1311;47.966;7.958;2024-01-06T06:14:40;2.57;;;1.70;;
2602;SDS011;1311;47.966;7.958;2024-01-06T06:17:07;3.03;;;2.03;;
2602;SDS011;1311;47.966;7.958;2024-01-06T06:19:34;3.43;;;1.97;;
2602;SDS011;1311;47.966;7.958;2024-01-06T06:22:01;1.97;;;1.67;;
2602;SDS011;1311;47.966;7.958;2024-01-06T06:24:29;1.80;;;1.50;;
2602;SDS011;1311;47.966;7.958;2024-01-06T06:26:57;3.90;;;1.83;;
2602;SDS011;1311;47.966;7.958;2024-01-06T06:29:23;3.50;;;2.00;;
2602;SDS011;1311;47.966;7.958;2024-01-06T06:31:51;2.17;;;1.90;;
2602;SDS011;1311;47.966;7.958;2024-01-06T06:34:18;3.10;;;1.93;;
2602;SDS011;1311;47.966;7.958;2024-01-06T06:36:44;3.13;;;2.63;;
2602;SDS011;1311;47.966;7.958;2024-01-06T06:39:12;1.67;;;1.57;;
2602;SDS011;1311;47.966;7.958;2024-01-06T06:41:40;3.17;;;1.90;;
2602;SDS011;1311;47.966;7.958;2024-01-06T06:44:07;4.67;;;2.33;;
2602;SDS011;1311;47.966;7.958;2024-01-06T06:46:34;4.67;;;2.20;;
2602;SDS011;1311;47.966;7.958;2024-01-06T06:49:00;2.67;;;2.17;;
2602;SDS011;1311;47.966;7.958;2024-01-06T06:51:28;2.27;;;1.90;;
2602;SDS011;1311;47.966;7.958;2024-01-06T06:53:55;3.70;;;2.43;;
2602;SDS011;1311;47.966;7.958;2024-01-06T06:56:23;2.73;;;2.07;;
2602;SDS011;1311;47.966;7.958;2024-01-06T06:58:51;2.23;;;2.03;;
2602;SDS011;1311;47.966;7.958;2024-01-06T07:01:18;2.83;;;2.00;;
2602;SDS011;1311;47.966;7.958;2024-01-06T07:03:45;4.83;;;2.53;;
2602;SDS011;1311;47.966;7.958;2024-01-06T07:06:12;4.00;;;2.53;;
2602;SDS011;1311;47.966;7.958;2024-01-06T07:08:40;2.30;;;2.10;;
2602;SDS011;1311;47.966;7.958;2024-01-06T07:11:07;5.43;;;2.33;;
2602;SDS011;1311;47.966;7.958;2024-01-06T07:13:36;6.43;;;2.47;;
2602;SDS011;1311;47.966;7.958;2024-01-06T07:16:04;2.50;;;2.03;;
2602;SDS011;1311;47.966;7.958;2024-01-06T07:18:32;2.07;;;1.80;;
2602;SDS011;1311;47.966;7.958;2024-01-06T07:20:59;2.60;;;2.23;;
2602;SDS011;1311;47.966;7.958;2024-01-06T07:23:26;3.00;;;2.30;;
2602;SDS011;1311;47.966;7.958;2024-01-06T07:25:52;3.60;;;2.67;;
2602;SDS011;1311;47.966;7.958;2024-01-06T07:28:21;4.03;;;2.77;;
2602;SDS011;1311;47.966;7.958;2024-01-06T07:30:48;4.00;;;2.70;;
2602;SDS011;1311;47.966;7.958;2024-01-06T07:33:16;2.30;;;2.10;;
2602;SDS011;1311;47.966;7.958;2024-01-06T07:35:43;3.17;;;1.93;;
2602;SDS011;1311;47.966;7.958;2024-01-06T07:38:11;5.57;;;2.30;;
2602;SDS011;1311;47.966;7.958;2024-01-06T07:40:37;2.97;;;2.60;;
2602;SDS011;1311;47.966;7.958;2024-01-06T07:43:04;2.57;;;2.30;;
2602;SDS011;1311;47.966;7.958;2024-01-06T07:45:32;2.73;;;2.50;;
2602;SDS011;1311;47.966;7.958;2024-01-06T07:47:59;4.00;;;2.60;;
2602;SDS011;1311;47.966;7.958;2024-01-06T07:50:27;2.87;;;2.00;;
2602;SDS011;1311;47.966;7.958;2024-01-06T07:52:54;3.40;;;2.00;;
2602;SDS011;1311;47.966;7.958;2024-01-06T07:55:21;2.03;;;1.70;;
2602;SDS011;1311;47.966;7.958;2024-01-06T07:57:48;2.63;;;1.50;;
2602;SDS011;1311;47.966;7.958;2024-01-06T08:00:15;4.10;;;1.80;;
2602;SDS011;1311;47.966;7.958;2024-01-06T08:02:42;4.00;;;1.53;;
2602;SDS011;1311;47.966;7.958;2024-01-06T08:05:08;1.97;;;1.80;;
2602;SDS011;1311;47.966;7.958;2024-01-06T08:07:36;2.67;;;1.80;;
2602;SDS011;1311;47.966;7.958;2024-01-06T08:10:03;4.73;;;2.00;;
2602;SDS011;1311;47.966;7.958;2024-01-06T08:12:31;2.93;;;2.03;;
2602;SDS011;1311;47.966;7.958;2024-01-06T08:14:58;2.13;;;1.90;;
2602;SDS011;1311;47.966;7.958;2024-01-06T08:17:24;2.40;;;2.00;;
2602;SDS011;1311;47.966;7.958;2024-01-06T08:19:52;2.47;;;2.17;;
2602;SDS011;1311;47.966;7.958;2024-01-06T08:22:19;3.33;;;2.00;;
2602;SDS011;1311;47.966;7.958;2024-01-06T08:24:47;2.17;;;1.90;;
2602;SDS011;1311;47.966;7.958;2024-01-06T08:27:14;4.30;;;2.27;;
2602;SDS011;1311;47.966;7.958;2024-01-06T08:29:41;2.47;;;2.00;;
2602;SDS011;1311;47.966;7.958;2024-01-06T08:32:08;2.47;;;2.00;;
2602;SDS011;1311;47.966;7.958;2024-01-06T08:34:35;2.47;;;2.10;;
2602;SDS011;1311;47.966;7.958;2024-01-06T08:37:02;4.60;;;2.20;;
2602;SDS011;1311;47.966;7.958;2024-01-06T08:39:29;3.90;;;2.20;;
2602;SDS011;1311;47.966;7.958;2024-01-06T08:41:57;2.20;;;1.70;;
2602;SDS011;1311;47.966;7.958;2024-01-06T08:44:24;3.90;;;2.27;;
2602;SDS011;1311;47.966;7.958;2024-01-06T08:46:51;3.07;;;2.20;;
2602;SDS011;1311;47.966;7.958;2024-01-06T08:49:18;2.70;;;2.43;;
2602;SDS011;1311;47.966;7.958;2024-01-06T08:51:45;3.03;;;2.50;;
2602;SDS011;1311;47.966;7.958;2024-01-06T08:54:11;4.43;;;2.97;;
2602;SDS011;1311;47.966;7.958;2024-01-06T08:56:38;3.93;;;3.40;;
2602;SDS011;1311;47.966;7.958;2024-01-06T08:59:07;6.83;;;4.10;;
2602;SDS011;1311;47.966;7.958;2024-01-06T09:01:34;5.97;;;3.77;;
2602;SDS011;1311;47.966;7.958;2024-01-06T09:04:02;6.83;;;4.70;;
2602;SDS011;1311;47.966;7.958;2024-01-06T09:06:30;7.77;;;6.27;;
2602;SDS011;1311;47.966;7.958;2024-01-06T09:09:00;8.40;;;6.33;;
2602;SDS011;1311;47.966;7.958;2024-01-06T09:11:27;9.43;;;5.10;;
2602;SDS011;1311;47.966;7.958;2024-01-06T09:13:54;9.03;;;4.90;;
2602;SDS011;1311;47.966;7.958;2024-01-06T09:16:22;5.23;;;3.27;;
2602;SDS011;1311;47.966;7.958;2024-01-06T09:18:49;4.80;;;2.70;;
2602;SDS011;1311;47.966;7.958;2024-01-06T09:21:16;2.20;;;2.00;;
2602;SDS011;1311;47.966;7.958;2024-01-06T09:23:44;1.83;;;1.40;;
2602;SDS011;1311;47.966;7.958;2024-01-06T09:26:13;5.70;;;1.80;;
2602;SDS011;1311;47.966;7.958;2024-01-06T09:28:41;1.60;;;1.50;;
2602;SDS011;1311;47.966;7.958;2024-01-06T09:31:08;2.33;;;1.50;;
2602;SDS011;1311;47.966;7.958;2024-01-06T09:33:36;1.97;;;1.30;;
2602;SDS011;1311;47.966;7.958;2024-01-06T09:36:03;3.60;;;1.57;;
2602;SDS011;1311;47.966;7.958;2024-01-06T09:38:36;1.13;;;1.13;;
2602;SDS011;1311;47.966;7.958;2024-01-06T09:41:03;1.63;;;1.50;;
2602;SDS011;1311;47.966;7.958;2024-01-06T09:43:34;4.57;;;2.97;;
2602;SDS011;1311;47.966;7.958;2024-01-06T09:46:03;6.17;;;3.23;;
2602;SDS011;1311;47.966;7.958;2024-01-06T09:48:39;4.77;;;2.30;;
2602;SDS011;1311;47.966;7.958;2024-01-06T09:51:08;2.60;;;1.93;;
2602;SDS011;1311;47.966;7.958;2024-01-06T09:53:40;3.27;;;1.33;;
2602;SDS011;1311;47.966;7.958;2024-01-06T09:56:12;1.17;;;1.07;;
2602;SDS011;1311;47.966;7.958;2024-01-06T09:58:41;2.40;;;1.40;;
2602;SDS011;1311;47.966;7.958;2024-01-06T10:01:08;3.63;;;1.30;;
2602;SDS011;1311;47.966;7.958;2024-01-06T10:03:35;1.97;;;1.20;;
2602;SDS011;1311;47.966;7.958;2024-01-06T10:06:04;2.60;;;1.50;;
2602;SDS011;1311;47.966;7.958;2024-01-06T10:08:32;2.10;;;1.90;;
2602;SDS011;1311;47.966;7.958;2024-01-06T10:11:01;1.63;;;1.50;;
2602;SDS011;1311;47.966;7.958;2024-01-06T10:13:28;8.77;;;5.27;;
2602;SDS011;1311;47.966;7.958;2024-01-06T10:15:55;6.10;;;3.70;;
2602;SDS011;1311;47.966;7.958;2024-01-06T10:18:24;12.10;;;7.37;;
2602;SDS011;1311;47.966;7.958;2024-01-06T10:20:51;6.60;;;3.80;;
2602;SDS011;1311;47.966;7.958;2024-01-06T10:23:20;3.60;;;2.50;;
2602;SDS011;1311;47.966;7.958;2024-01-06T10:25:51;1.57;;;1.10;;
2602;SDS011;1311;47.966;7.958;2024-01-06T10:28:20;1.10;;;0.90;;
2602;SDS011;1311;47.966;7.958;2024-01-06T10:30:47;4.10;;;2.07;;
2602;SDS011;1311;47.966;7.958;2024-01-06T10:33:16;6.93;;;3.30;;
2602;SDS011;1311;47.966;7.958;2024-01-06T10:35:43;5.07;;;2.80;;
2602;SDS011;1311;47.966;7.958;2024-01-06T10:38:11;1.87;;;1.70;;
2602;SDS011;1311;47.966;7.958;2024-01-06T10:40:40;3.37;;;2.30;;
2602;SDS011;1311;47.966;7.958;2024-01-06T10:43:21;5.10;;;2.47;;
2602;SDS011;1311;47.966;7.958;2024-01-06T10:45:49;6.87;;;3.27;;
2602;SDS011;1311;47.966;7.958;2024-01-06T10:48:17;3.87;;;2.30;;
2602;SDS011;1311;47.966;7.958;2024-01-06T10:50:46;5.20;;;2.77;;
2602;SDS011;1311;47.966;7.958;2024-01-06T10:53:14;4.50;;;2.23;;
2602;SDS011;1311;47.966;7.958;2024-01-06T10:55:45;4.57;;;2.13;;
2602;SDS011;1311;47.966;7.958;2024-01-06T10:58:15;3.03;;;1.37;;
2602;SDS011;1311;47.966;7.958;2024-01-06T11:00:43;3.97;;;2.50;;
2602;SDS011;1311;47.966;7.958;2024-01-06T11:03:10;5.23;;;2.90;;
2602;SDS011;1311;47.966;7.958;2024-01-06T11:05:40;6.60;;;2.90;;
2602;SDS011;1311;47.966;7.958;2024-01-06T11:08:07;3.70;;;1.80;;
2602;SDS011;1311;47.966;7.958;2024-01-06T11:10:35;2.00;;;1.37;;
2602;SDS011;1311;47.966;7.958;2024-01-06T11:13:11;4.07;;;2.10;;
2602;SDS011;1311;47.966;7.958;2024-01-06T11:15:40;2.77;;;2.30;;
2602;SDS011;1311;47.966;7.958;2024-01-06T11:26:51;1.30;;;1.20;;
2602;SDS011;1311;47.966;7.958;2024-01-06T11:29:22;4.23;;;2.47;;
2602;SDS011;1311;47.966;7.958;2024-01-06T11:34:49;2.07;;;1.40;;
2602;SDS011;1311;47.966;7.958;2024-01-06T11:37:20;3.50;;;1.60;;
2602;SDS011;1311;47.966;7.958;2024-01-06T11:39:50;1.50;;;1.40;;
2602;SDS011;1311;47.966;7.958;2024-01-06T11:42:18;1.30;;;1.20;;
2602;SDS011;1311;47.966;7.958;2024-01-06T11:44:50;1.60;;;1.50;;
2602;SDS011;1311;47.966;7.958;2024-01-06T11:47:18;2.00;;;1.30;;
2602;SDS011;1311;47.966;7.958;2024-01-06T11:49:48;2.00;;;1.37;;
2602;SDS011;1311;47.966;7.958;2024-01-06T11:52:21;1.80;;;1.47;;
2602;SDS011;1311;47.966;7.958;2024-01-06T11:54:50;1.27;;;1.17;;
2602;SDS011;1311;47.966;7.958;2024-01-06T11:57:19;2.77;;;1.60;;
2602;SDS011;1311;47.966;7.958;2024-01-06T11:59:46;1.27;;;1.23;;
2602;SDS011;1311;47.966;7.958;2024-01-06T12:02:18;1.63;;;1.53;;
2602;SDS011;1311;47.966;7.958;2024-01-06T12:04:48;2.03;;;1.40;;
2602;SDS011;1311;47.966;7.958;2024-01-06T12:07:16;1.70;;;1.57;;
2602;SDS011;1311;47.966;7.958;2024-01-06T12:09:44;4.13;;;2.47;;
2602;SDS011;1311;47.966;7.958;2024-01-06T12:12:14;3.00;;;2.30;;
2602;SDS011;1311;47.966;7.958;2024-01-06T12:14:42;2.57;;;1.90;;
2602;SDS011;1311;47.966;7.958;2024-01-06T12:17:11;1.23;;;1.10;;
2602;SDS011;1311;47.966;7.958;2024-01-06T12:19:40;2.20;;;1.60;;
2602;SDS011;1311;47.966;7.958;2024-01-06T12:22:09;2.03;;;1.47;;
2602;SDS011;1311;47.966;7.958;2024-01-06T12:24:38;3.77;;;2.30;;
2602;SDS011;1311;47.966;7.958;2024-01-06T12:27:06;2.47;;;2.20;;
2602;SDS011;1311;47.966;7.958;2024-01-06T12:29:37;3.10;;;1.57;;
2602;SDS011;1311;47.966;7.958;2024-01-06T12:32:05;2.37;;;1.70;;
2602;SDS011;1311;47.966;7.958;2024-01-06T12:34:33;1.83;;;1.63;;
2602;SDS011;1311;47.966;7.958;2024-01-06T12:37:01;1.43;;;1.33;;
2602;SDS011;1311;47.966;7.958;2024-01-06T12:39:29;3.63;;;1.73;;
2602;SDS011;1311;47.966;7.958;2024-01-06T12:41:56;2.20;;;2.00;;
2602;SDS011;1311;47.966;7.958;2024-01-06T12:44:25;1.70;;;1.60;;
2602;SDS011;1311;47.966;7.958;2024-01-06T12:46:52;5.80;;;1.70;;
2602;SDS011;1311;47.966;7.958;2024-01-06T12:49:19;3.53;;;1.77;;
2602;SDS011;1311;47.966;7.958;2024-01-06T12:51:46;2.93;;;1.87;;
2602;SDS011;1311;47.966;7.958;2024-01-06T12:54:14;2.13;;;1.93;;
2602;SDS011;1311;47.966;7.958;2024-01-06T12:56:41;1.40;;;1.30;;
2602;SDS011;1311;47.966;7.958;2024-01-06T12:59:11;2.57;;;1.40;;
2602;SDS011;1311;47.966;7.958;2024-01-06T13:01:38;4.27;;;1.90;;
2602;SDS011;1311;47.966;7.958;2024-01-06T13:04:05;2.33;;;1.70;;
2602;SDS011;1311;47.966;7.958;2024-01-06T13:06:32;1.87;;;1.60;;
2602;SDS011;1311;47.966;7.958;2024-01-06T13:08:59;2.30;;;1.57;;
2602;SDS011;1311;47.966;7.958;2024-01-06T13:11:32;1.43;;;1.33;;
2602;SDS011;1311;47.966;7.958;2024-01-06T13:14:00;10.13;;;4.97;;
2602;SDS011;1311;47.966;7.958;2024-01-06T13:16:27;9.60;;;5.77;;
2602;SDS011;1311;47.966;7.958;2024-01-06T13:18:54;4.90;;;3.37;;
2602;SDS011;1311;47.966;7.958;2024-01-06T13:21:20;5.87;;;2.63;;
2602;SDS011;1311;47.966;7.958;2024-01-06T13:23:47;5.00;;;3.90;;
2602;SDS011;1311;47.966;7.958;2024-01-06T13:26:17;3.10;;;2.80;;
2602;SDS011;1311;47.966;7.958;2024-01-06T13:28:45;2.27;;;1.90;;
2602;SDS011;1311;47.966;7.958;2024-01-06T13:31:12;10.57;;;7.60;;
2602;SDS011;1311;47.966;7.958;2024-01-06T13:33:40;9.30;;;5.67;;
2602;SDS011;1311;47.966;7.958;2024-01-06T13:36:07;2.47;;;2.27;;
2602;SDS011;1311;47.966;7.958;2024-01-06T13:38:34;4.20;;;3.00;;
2602;SDS011;1311;47.966;7.958;2024-01-06T13:41:01;3.47;;;2.23;;
2602;SDS011;1311;47.966;7.958;2024-01-06T13:43:29;3.80;;;3.40;;
2602;SDS011;1311;47.966;7.958;2024-01-06T13:45:58;3.30;;;2.60;;
2602;SDS011;1311;47.966;7.958;2024-01-06T13:48:26;3.60;;;2.30;;
2602;SDS011;1311;47.966;7.958;2024-01-06T13:50:53;2.50;;;2.30;;
2602;SDS011;1311;47.966;7.958;2024-01-06T13:53:21;2.90;;;2.10;;
2602;SDS011;1311;47.966;7.958;2024-01-06T13:55:48;4.03;;;2.37;;
2602;SDS011;1311;47.966;7.958;2024-01-06T13:58:15;4.23;;;3.20;;
2602;SDS011;1311;47.966;7.958;2024-01-06T14:00:44;4.73;;;4.23;;
2602;SDS011;1311;47.966;7.958;2024-01-06T14:03:12;3.03;;;2.80;;
2602;SDS011;1311;47.966;7.958;2024-01-06T14:05:39;3.97;;;2.70;;
2602;SDS011;1311;47.966;7.958;2024-01-06T14:08:07;8.80;;;1.90;;
2602;SDS011;1311;47.966;7.958;2024-01-06T14:10:34;3.13;;;2.30;;
2602;SDS011;1311;47.966;7.958;2024-01-06T14:13:03;3.23;;;2.37;;
2602;SDS011;1311;47.966;7.958;2024-01-06T14:15:32;2.53;;;2.33;;
2602;SDS011;1311;47.966;7.958;2024-01-06T14:18:00;2.70;;;2.17;;
2602;SDS011;1311;47.966;7.958;2024-01-06T14:20:30;3.93;;;2.30;;
2602;SDS011;1311;47.966;7.958;2024-01-06T14:23:03;2.73;;;2.53;;
2602;SDS011;1311;47.966;7.958;2024-01-06T14:25:30;4.60;;;2.40;;
2602;SDS011;1311;47.966;7.958;2024-01-06T14:27:57;3.80;;;2.03;;
2602;SDS011;1311;47.966;7.958;2024-01-06T14:30:24;2.20;;;2.00;;
2602;SDS011;1311;47.966;7.958;2024-01-06T14:32:51;2.63;;;2.43;;
2602;SDS011;1311;47.966;7.958;2024-01-06T14:35:18;6.53;;;3.37;;
2602;SDS011;1311;47.966;7.958;2024-01-06T14:37:46;5.30;;;3.17;;
2602;SDS011;1311;47.966;7.958;2024-01-06T14:40:13;7.10;;;4.00;;
2602;SDS011;1311;47.966;7.958;2024-01-06T14:42:41;4.30;;;3.23;;
2602;SDS011;1311;47.966;7.958;2024-01-06T14:45:09;4.80;;;3.00;;
2602;SDS011;1311;47.966;7.958;2024-01-06T14:47:35;5.17;;;3.60;;
2602;SDS011;1311;47.966;7.958;2024-01-06T14:50:02;7.67;;;6.57;;
2602;SDS011;1311;47.966;7.958;2024-01-06T14:52:30;5.50;;;4.30;;
2602;SDS011;1311;47.966;7.958;2024-01-06T14:54:58;6.83;;;5.67;;
2602;SDS011;1311;47.966;7.958;2024-01-06T14:57:24;4.40;;;4.00;;
2602;SDS011;1311;47.966;7.958;2024-01-06T14:59:51;4.07;;;3.03;;
2602;SDS011;1311;47.966;7.958;2024-01-06T15:02:18;2.87;;;2.63;;
2602;SDS011;1311;47.966;7.958;2024-01-06T15:04:45;4.40;;;2.43;;
2602;SDS011;1311;47.966;7.958;2024-01-06T15:07:12;4.47;;;3.00;;
2602;SDS011;1311;47.966;7.958;2024-01-06T15:09:39;3.13;;;2.83;;
2602;SDS011;1311;47.966;7.958;2024-01-06T15:12:07;4.80;;;4.40;;
2602;SDS011;1311;47.966;7.958;2024-01-06T15:14:34;5.37;;;4.87;;
2602;SDS011;1311;47.966;7.958;2024-01-06T15:17:01;4.10;;;3.80;;
2602;SDS011;1311;47.966;7.958;2024-01-06T15:19:28;3.23;;;2.90;;
2602;SDS011;1311;47.966;7.958;2024-01-06T15:21:56;2.73;;;2.53;;
2602;SDS011;1311;47.966;7.958;2024-01-06T15:24:23;2.83;;;2.63;;
2602;SDS011;1311;47.966;7.958;2024-01-06T15:26:49;3.77;;;3.37;;
2602;SDS011;1311;47.966;7.958;2024-01-06T15:29:18;6.43;;;3.00;;